Time;durP1;ratioP1;P1;durP2;ratioP2;P2;SDS_P1;SDS_P2;PMS_P1;PMS_P2;Temp;Humidity;BMP_temperature;BMP_pressure;BME280_temperature;BME280_humidity;BME280_pressure;Samples;Min_cycle;Max_cycle;Signal;HPM_P1;HPM_P2
2022/03/10 00:00:35;;;;;;;;;;;;;;;;;;4958430;28;19949;-74
2022/03/10 00:03:02;;;;;;;;;;;;;;;;;;4958040;28;20024;-71
2022/03/10 00:05:28;;;;;;;;;;;;;;;;;;4960290;28;20330;-71
2022/03/10 00:07:54;;;;;;;;;;;;;;;;;;4959442;28;20040;-71
2022/03/10 00:10:22;;;;;;;;;;;;;;;;;;4963015;28;19976;-71
2022/03/10 00:12:48;;;;;;;;;;;;;;;;;;4960146;28;20394;-71
2022/03/10 00:15:15;;;;;;;;;;;;;;;;;;4957028;28;19961;-71
2022/03/10 00:17:41;;;;;;;;;;;;;;;;;;4960350;28;20035;-71
2022/03/10 00:20:08;;;;;;;;;;;;;;;;;;4961264;28;20055;-71
2022/03/10 00:22:34;;;;;;;;;;;;;;;;;;4958788;28;19953;-71
2022/03/10 00:25:03;;;;;;;;;;;;;;;;;;4964376;28;20045;-71
2022/03/10 00:27:29;;;;;;;;;;;;;;;;;;4962272;28;19977;-73
2022/03/10 00:29:56;;;;;;;;;;;;;;;;;;4959542;28;20352;-74
2022/03/10 00:32:23;;;;;;;;;;;;;;;;;;4958946;28;20452;-72
2022/03/10 00:34:49;;;;;;;;;;;;;;;;;;4960284;28;19969;-72
2022/03/10 00:37:15;;;;;;;;;;;;;;;;;;4960404;28;19926;-74
2022/03/10 00:39:46;;;;;;;;;;;;;;;;;;4959077;28;20481;-74
2022/03/10 00:42:12;;;;;;;;;;;;;;;;;;4959331;28;20130;-73
2022/03/10 00:44:39;;;;;;;;;;;;;;;;;;4961175;28;20015;-74
2022/03/10 00:47:05;;;;;;;;;;;;;;;;;;4958145;28;20009;-74
2022/03/10 00:49:32;;;;;;;;;;;;;;;;;;4962098;28;20021;-74
2022/03/10 00:51:58;;;;;;;;;;;;;;;;;;4966160;28;20013;-74
2022/03/10 00:54:26;;;;;;;;;;;;;;;;;;4962778;28;19929;-74
2022/03/10 00:56:52;;;;;;;;;;;;;;;;;;4962689;28;19934;-74
2022/03/10 00:59:19;;;;;;;;;;;;;;;;;;4962447;28;19968;-74
2022/03/10 01:01:52;;;;;;;;;;;;;;;;;;4963803;28;19973;-74
2022/03/10 01:04:19;;;;;;;;;;;;;;;;;;4963902;28;19922;-73
2022/03/10 01:06:45;;;;;;;;;;;;;;;;;;4961042;28;19926;-74
2022/03/10 01:09:15;;;;;;;;;;;;;;;;;;4960753;28;20918;-74
2022/03/10 01:11:41;;;;;;;;;;;;;;;;;;4959395;28;20048;-74
2022/03/10 01:14:10;;;;;;;;;;;;;;;;;;4959224;28;19930;-74
2022/03/10 01:16:37;;;;;;;;;;;;;;;;;;4959384;28;20012;-74
2022/03/10 01:19:03;;;;;;;;;;;;;;;;;;4958290;28;19972;-74
2022/03/10 01:21:30;;;;;;;;;;;;;;;;;;4962005;28;20012;-74
2022/03/10 01:23:56;;;;;;;;;;;;;;;;;;4961149;28;20005;-74
2022/03/10 01:26:23;;;;;;;;;;;;;;;;;;4962784;28;20046;-74
2022/03/10 01:28:50;;;;;;;;;;;;;;;;;;4962869;28;19972;-74
2022/03/10 01:31:16;;;;;;;;;;;;;;;;;;4961435;28;19973;-74
2022/03/10 01:33:42;;;;;;;;;;;;;;;;;;4963165;28;19984;-74
2022/03/10 01:36:09;;;;;;;;;;;;;;;;;;4964875;28;19926;-74
2022/03/10 01:38:39;;;;;;;;;;;;;;;;;;4963390;28;20034;-74
2022/03/10 01:41:05;;;;;;;;;;;;;;;;;;4964511;28;19973;-74
2022/03/10 01:43:34;;;;;;;;;;;;;;;;;;4961238;28;20001;-74
2022/03/10 01:46:04;;;;;;;;;;;;;;;;;;4966961;28;19977;-74
2022/03/10 01:48:30;;;;;;;;;;;;;;;;;;4961270;28;19981;-74
2022/03/10 01:50:57;;;;;;;;;;;;;;;;;;4967202;28;19977;-74
2022/03/10 01:53:30;;;;;;;;;;;;;;;;;;4965658;28;20032;-74
2022/03/10 01:55:57;;;;;;;;;;;;;;;;;;4961788;28;20004;-74
2022/03/10 01:58:23;;;;;;;;;;;;;;;;;;4964424;28;19930;-74
2022/03/10 02:00:53;;;;;;;;;;;;;;;;;;4962471;28;20283;-74
2022/03/10 02:03:19;;;;;;;;;;;;;;;;;;4961302;28;19926;-74
2022/03/10 02:05:45;;;;;;;;;;;;;;;;;;4962916;28;20469;-74
2022/03/10 02:10:58;;;;;;;;;;;;;;;;;;4960022;28;19965;-74
2022/03/10 02:13:24;;;;;;;;;;;;;;;;;;4962801;28;19977;-74
2022/03/10 02:18:36;;;;;;;;;;;;;;;;;;4967329;28;19930;-74
2022/03/10 02:21:02;;;;;;;;;;;;;;;;;;4960358;28;20046;-74
2022/03/10 02:23:28;;;;;;;;;;;;;;;;;;4959488;28;20150;-74
2022/03/10 02:25:55;;;;;;;;;;;;;;;;;;4959708;28;19934;-75
2022/03/10 02:28:22;;;;;;;;;;;;;;;;;;4958483;28;19969;-74
2022/03/10 02:30:48;;;;;;;;;;;;;;;;;;4957322;28;20402;-75
2022/03/10 02:33:16;;;;;;;;;;;;;;;;;;4961251;28;19925;-74
2022/03/10 02:35:42;;;;;;;;;;;;;;;;;;4960493;28;20386;-74
2022/03/10 02:38:09;;;;;;;;;;;;;;;;;;4964482;28;19972;-74
2022/03/10 02:40:35;;;;;;;;;;;;;;;;;;4964164;28;20017;-74
2022/03/10 02:43:01;;;;;;;;;;;;;;;;;;4958498;28;20040;-74
2022/03/10 02:45:28;;;;;;;;;;;;;;;;;;4961999;28;20009;-74
2022/03/10 02:47:54;;;;;;;;;;;;;;;;;;4963442;28;19969;-74
2022/03/10 02:50:21;;;;;;;;;;;;;;;;;;4960244;28;20393;-74
2022/03/10 02:52:47;;;;;;;;;;;;;;;;;;4960845;28;19958;-74
2022/03/10 02:55:20;;;;;;;;;;;;;;;;;;4961574;28;20491;-74
2022/03/10 02:57:46;;;;;;;;;;;;;;;;;;4965693;28;20008;-75
2022/03/10 03:00:14;;;;;;;;;;;;;;;;;;4959905;28;20487;-74
2022/03/10 03:02:41;;;;;;;;;;;;;;;;;;4966808;28;20608;-74
2022/03/10 03:05:08;;;;;;;;;;;;;;;;;;4958397;28;19937;-74
2022/03/10 03:07:34;;;;;;;;;;;;;;;;;;4961982;28;20334;-74
2022/03/10 03:10:07;;;;;;;;;;;;;;;;;;4963892;28;19962;-74
2022/03/10 03:12:33;;;;;;;;;;;;;;;;;;4963249;28;19977;-74
2022/03/10 03:14:59;;;;;;;;;;;;;;;;;;4961656;28;19992;-74
2022/03/10 03:17:29;;;;;;;;;;;;;;;;;;4956605;28;19972;-74
2022/03/10 03:19:55;;;;;;;;;;;;;;;;;;4959814;28;20319;-74
2022/03/10 03:22:21;;;;;;;;;;;;;;;;;;4964351;28;19969;-74
2022/03/10 03:24:54;;;;;;;;;;;;;;;;;;4961315;28;19968;-74
2022/03/10 03:27:21;;;;;;;;;;;;;;;;;;4960087;28;19965;-74
2022/03/10 03:29:48;;;;;;;;;;;;;;;;;;4958566;28;19968;-74
2022/03/10 03:32:14;;;;;;;;;;;;;;;;;;4961419;28;19929;-74
2022/03/10 03:34:41;;;;;;;;;;;;;;;;;;4961178;28;19929;-74
2022/03/10 03:37:07;;;;;;;;;;;;;;;;;;4962960;28;20074;-74
2022/03/10 03:39:34;;;;;;;;;;;;;;;;;;4960564;28;19972;-75
2022/03/10 03:42:00;;;;;;;;;;;;;;;;;;4961216;28;19970;-74
2022/03/10 03:44:26;;;;;;;;;;;;;;;;;;4959040;28;20410;-76
2022/03/10 03:46:59;;;;;;;;;;;;;;;;;;4957405;28;20300;-74
2022/03/10 03:49:25;;;;;;;;;;;;;;;;;;4959042;28;19969;-74
2022/03/10 03:51:51;;;;;;;;;;;;;;;;;;4960556;28;19984;-74
2022/03/10 03:54:24;;;;;;;;;;;;;;;;;;4962691;28;19965;-75
2022/03/10 03:56:50;;;;;;;;;;;;;;;;;;4962098;28;20448;-75
2022/03/10 03:59:17;;;;;;;;;;;;;;;;;;4960855;28;19977;-75
2022/03/10 04:01:50;;;;;;;;;;;;;;;;;;4961256;28;19962;-75
2022/03/10 04:04:19;;;;;;;;;;;;;;;;;;4959967;28;19989;-75
2022/03/10 04:06:46;;;;;;;;;;;;;;;;;;4967020;28;20429;-75
2022/03/10 04:09:13;;;;;;;;;;;;;;;;;;4959071;28;19926;-74
2022/03/10 04:11:39;;;;;;;;;;;;;;;;;;4962791;28;19973;-74
2022/03/10 04:14:06;;;;;;;;;;;;;;;;;;4961141;28;20006;-75
2022/03/10 04:16:33;;;;;;;;;;;;;;;;;;4961108;28;20016;-75
2022/03/10 04:18:59;;;;;;;;;;;;;;;;;;4960451;28;19929;-76
2022/03/10 04:21:25;;;;;;;;;;;;;;;;;;4962851;28;19961;-75
2022/03/10 04:23:58;;;;;;;;;;;;;;;;;;4960400;28;20049;-74
2022/03/10 04:26:31;;;;;;;;;;;;;;;;;;4961564;28;19969;-74
2022/03/10 04:28:57;;;;;;;;;;;;;;;;;;4960464;28;19926;-74
2022/03/10 04:31:23;;;;;;;;;;;;;;;;;;4964637;28;20171;-75
2022/03/10 04:33:50;;;;;;;;;;;;;;;;;;4962193;28;20004;-75
2022/03/10 04:36:16;;;;;;;;;;;;;;;;;;4965394;28;20390;-75
2022/03/10 04:38:44;;;;;;;;;;;;;;;;;;4961951;28;20450;-75
2022/03/10 04:41:10;;;;;;;;;;;;;;;;;;4957334;28;19933;-75
2022/03/10 04:43:37;;;;;;;;;;;;;;;;;;4960879;28;19977;-74
2022/03/10 04:46:10;;;;;;;;;;;;;;;;;;4958672;28;20386;-75
2022/03/10 04:48:36;;;;;;;;;;;;;;;;;;4963567;28;19922;-74
2022/03/10 04:51:03;;;;;;;;;;;;;;;;;;4963620;28;20025;-74
2022/03/10 04:53:30;;;;;;;;;;;;;;;;;;4963617;28;19958;-74
2022/03/10 04:55:56;;;;;;;;;;;;;;;;;;4963389;28;20429;-74
2022/03/10 04:58:23;;;;;;;;;;;;;;;;;;4959816;28;19985;-74
2022/03/10 05:00:50;;;;;;;;;;;;;;;;;;4963783;28;19965;-74
2022/03/10 05:03:17;;;;;;;;;;;;;;;;;;4965600;28;19922;-75
2022/03/10 05:05:43;;;;;;;;;;;;;;;;;;4964479;28;19922;-74
2022/03/10 05:08:13;;;;;;;;;;;;;;;;;;4962109;28;20067;-74
2022/03/10 05:10:39;;;;;;;;;;;;;;;;;;4962144;28;19957;-74
2022/03/10 05:13:05;;;;;;;;;;;;;;;;;;4967647;28;20471;-75
2022/03/10 05:15:34;;;;;;;;;;;;;;;;;;4962624;28;19969;-74
2022/03/10 05:18:01;;;;;;;;;;;;;;;;;;4964239;28;19998;-72
2022/03/10 05:20:27;;;;;;;;;;;;;;;;;;4960955;28;19969;-72
2022/03/10 05:22:53;;;;;;;;;;;;;;;;;;4963874;28;19929;-72
2022/03/10 05:25:20;;;;;;;;;;;;;;;;;;4962191;28;19969;-72
2022/03/10 05:27:46;;;;;;;;;;;;;;;;;;4964922;28;20394;-72
2022/03/10 05:30:19;;;;;;;;;;;;;;;;;;4967606;28;19928;-72
2022/03/10 05:32:45;;;;;;;;;;;;;;;;;;4964341;28;20521;-71
2022/03/10 05:35:14;;;;;;;;;;;;;;;;;;4962806;28;19977;-72
2022/03/10 05:37:48;;;;;;;;;;;;;;;;;;4964409;28;19976;-72
2022/03/10 05:40:15;;;;;;;;;;;;;;;;;;4962060;28;19981;-71
2022/03/10 05:42:41;;;;;;;;;;;;;;;;;;4965504;28;19932;-72
2022/03/10 05:45:08;;;;;;;;;;;;;;;;;;4964086;28;19962;-71
2022/03/10 05:47:35;;;;;;;;;;;;;;;;;;4962494;28;19978;-71
2022/03/10 05:50:01;;;;;;;;;;;;;;;;;;4960773;28;19977;-71
2022/03/10 05:52:27;;;;;;;;;;;;;;;;;;4962698;28;20009;-71
2022/03/10 05:54:54;;;;;;;;;;;;;;;;;;4960337;28;19922;-71
2022/03/10 05:57:20;;;;;;;;;;;;;;;;;;4961398;28;19962;-71
2022/03/10 05:59:47;;;;;;;;;;;;;;;;;;4962069;28;20413;-71
2022/03/10 06:02:13;;;;;;;;;;;;;;;;;;4961769;28;19957;-71
2022/03/10 06:04:40;;;;;;;;;;;;;;;;;;4963284;28;20014;-71
2022/03/10 06:07:07;;;;;;;;;;;;;;;;;;4961708;28;20372;-70
2022/03/10 06:09:33;;;;;;;;;;;;;;;;;;4965159;28;20026;-71
2022/03/10 06:12:00;;;;;;;;;;;;;;;;;;4961138;28;20424;-71
2022/03/10 06:14:30;;;;;;;;;;;;;;;;;;4961853;28;19985;-71
2022/03/10 06:16:56;;;;;;;;;;;;;;;;;;4960968;28;19957;-71
2022/03/10 06:19:23;;;;;;;;;;;;;;;;;;4963192;28;19922;-71
2022/03/10 06:21:56;;;;;;;;;;;;;;;;;;4959603;28;19981;-72
2022/03/10 06:24:22;;;;;;;;;;;;;;;;;;4967341;28;20009;-72
2022/03/10 06:26:49;;;;;;;;;;;;;;;;;;4961370;28;19957;-71
2022/03/10 06:29:16;;;;;;;;;;;;;;;;;;4957278;28;19926;-71
2022/03/10 06:31:42;;;;;;;;;;;;;;;;;;4962725;28;19980;-71
2022/03/10 06:34:09;;;;;;;;;;;;;;;;;;4957852;28;20398;-71
2022/03/10 06:36:35;;;;;;;;;;;;;;;;;;4958284;28;19958;-72
2022/03/10 06:39:02;;;;;;;;;;;;;;;;;;4960616;28;20063;-71
2022/03/10 06:41:28;;;;;;;;;;;;;;;;;;4959663;28;19962;-72
2022/03/10 06:43:58;;;;;;;;;;;;;;;;;;4961330;28;19922;-72
2022/03/10 06:46:24;;;;;;;;;;;;;;;;;;4959667;28;20413;-71
2022/03/10 06:48:51;;;;;;;;;;;;;;;;;;4959468;28;20402;-71
2022/03/10 06:51:17;;;;;;;;;;;;;;;;;;4965821;28;20385;-71
2022/03/10 06:53:43;;;;;;;;;;;;;;;;;;4962131;28;19969;-71
2022/03/10 06:56:10;;;;;;;;;;;;;;;;;;4960103;28;19969;-71
2022/03/10 06:58:37;;;;;;;;;;;;;;;;;;4961231;28;20028;-72
2022/03/10 07:01:03;;;;;;;;;;;;;;;;;;4960479;28;19965;-71
2022/03/10 07:03:30;;;;;;;;;;;;;;;;;;4956955;28;19930;-71
2022/03/10 07:05:56;;;;;;;;;;;;;;;;;;4959170;28;19930;-71
2022/03/10 07:08:23;;;;;;;;;;;;;;;;;;4964518;28;20353;-71
2022/03/10 07:10:49;;;;;;;;;;;;;;;;;;4960603;28;19957;-71
2022/03/10 07:13:22;;;;;;;;;;;;;;;;;;4957819;28;20025;-71
2022/03/10 07:15:52;;;;;;;;;;;;;;;;;;4961540;28;19949;-72
2022/03/10 07:18:19;;;;;;;;;;;;;;;;;;4955855;28;20393;-71
2022/03/10 07:20:52;;;;;;;;;;;;;;;;;;4960842;28;19976;-71
2022/03/10 07:23:18;;;;;;;;;;;;;;;;;;4964025;28;19965;-71
2022/03/10 07:25:45;;;;;;;;;;;;;;;;;;4961759;28;20222;-71
2022/03/10 07:28:13;;;;;;;;;;;;;;;;;;4962568;28;19922;-72
2022/03/10 07:30:39;;;;;;;;;;;;;;;;;;4963440;28;20412;-72
2022/03/10 07:33:06;;;;;;;;;;;;;;;;;;4963074;28;19962;-71
2022/03/10 07:35:34;;;;;;;;;;;;;;;;;;4959601;28;20402;-71
2022/03/10 07:38:00;;;;;;;;;;;;;;;;;;4959686;28;19973;-71
2022/03/10 07:40:26;;;;;;;;;;;;;;;;;;4961162;28;19933;-71
2022/03/10 07:42:59;;;;;;;;;;;;;;;;;;4958508;28;20029;-71
2022/03/10 07:45:25;;;;;;;;;;;;;;;;;;4960760;28;19973;-72
2022/03/10 07:47:52;;;;;;;;;;;;;;;;;;4960558;28;20386;-71
2022/03/10 07:50:19;;;;;;;;;;;;;;;;;;4956092;28;20382;-71
2022/03/10 07:52:46;;;;;;;;;;;;;;;;;;4959923;28;20006;-71
2022/03/10 07:55:13;;;;;;;;;;;;;;;;;;4962102;28;19984;-71
2022/03/10 07:57:46;;;;;;;;;;;;;;;;;;4958245;28;19957;-71
2022/03/10 08:00:12;;;;;;;;;;;;;;;;;;4960609;28;19961;-71
2022/03/10 08:02:39;;;;;;;;;;;;;;;;;;4963402;28;19973;-71
2022/03/10 08:05:12;;;;;;;;;;;;;;;;;;4957672;28;20290;-71
2022/03/10 08:07:39;;;;;;;;;;;;;;;;;;4960276;28;20030;-71
2022/03/10 08:10:06;;;;;;;;;;;;;;;;;;4959643;28;19930;-71
2022/03/10 08:12:33;;;;;;;;;;;;;;;;;;4962292;28;19961;-71
2022/03/10 08:14:59;;;;;;;;;;;;;;;;;;4961907;28;19930;-71
2022/03/10 08:17:25;;;;;;;;;;;;;;;;;;4963018;28;19972;-71
2022/03/10 08:19:56;;;;;;;;;;;;;;;;;;4961973;28;19930;-71
2022/03/10 08:22:26;;;;;;;;;;;;;;;;;;4958662;28;20553;-71
2022/03/10 08:24:52;;;;;;;;;;;;;;;;;;4963870;28;19965;-71
2022/03/10 08:27:25;;;;;;;;;;;;;;;;;;4967083;28;19963;-71
2022/03/10 08:29:51;;;;;;;;;;;;;;;;;;4969312;28;20013;-71
2022/03/10 08:32:19;;;;;;;;;;;;;;;;;;4965056;28;19949;-71
2022/03/10 08:34:46;;;;;;;;;;;;;;;;;;4965674;28;19958;-71
2022/03/10 08:37:13;;;;;;;;;;;;;;;;;;4965414;28;20008;-71
2022/03/10 08:39:39;;;;;;;;;;;;;;;;;;4962995;28;19966;-71
2022/03/10 08:42:08;;;;;;;;;;;;;;;;;;4961763;28;20021;-71
2022/03/10 08:44:34;;;;;;;;;;;;;;;;;;4962193;28;19969;-70
2022/03/10 08:47:01;;;;;;;;;;;;;;;;;;4948238;28;20279;-71
2022/03/10 08:49:28;;;;;;;;;;;;;;;;;;4947340;28;19977;-71
2022/03/10 08:51:55;;;;;;;;;;;;;;;;;;4941882;28;19964;-71
2022/03/10 08:54:21;;;;;;;;;;;;;;;;;;4963221;28;19926;-72
2022/03/10 08:56:54;;;;;;;;;;;;;;;;;;4943700;28;20509;-72
2022/03/10 08:59:21;;;;;;;;;;;;;;;;;;4945624;28;19927;-70
2022/03/10 09:01:47;;;;;;;;;;;;;;;;;;4943822;28;20007;-71
2022/03/10 09:04:14;;;;;;;;;;;;;;;;;;4943792;28;19933;-71
2022/03/10 09:06:40;;;;;;;;;;;;;;;;;;4946142;28;20021;-71
2022/03/10 09:09:06;;;;;;;;;;;;;;;;;;4941738;28;19974;-71
2022/03/10 09:11:35;;;;;;;;;;;;;;;;;;4942447;28;19958;-71
2022/03/10 09:14:01;;;;;;;;;;;;;;;;;;4942355;28;19973;-71
2022/03/10 09:16:27;;;;;;;;;;;;;;;;;;4946055;28;19976;-71
2022/03/10 09:19:00;;;;;;;;;;;;;;;;;;4941915;28;20417;-71
2022/03/10 09:21:27;;;;;;;;;;;;;;;;;;4943441;28;20401;-71
2022/03/10 09:23:53;;;;;;;;;;;;;;;;;;4941381;28;19926;-71
2022/03/10 09:26:21;;;;;;;;;;;;;;;;;;4957158;28;20366;-71
2022/03/10 09:28:47;;;;;;;;;;;;;;;;;;4963243;28;19989;-71
2022/03/10 09:31:14;;;;;;;;;;;;;;;;;;4963627;28;20368;-71
2022/03/10 09:33:47;;;;;;;;;;;;;;;;;;4963364;28;19933;-71
2022/03/10 09:36:14;;;;;;;;;;;;;;;;;;4964189;28;20434;-71
2022/03/10 09:38:40;;;;;;;;;;;;;;;;;;4961587;28;19926;-71
2022/03/10 09:41:07;;;;;;;;;;;;;;;;;;4963591;28;19969;-72
2022/03/10 09:43:33;;;;;;;;;;;;;;;;;;4963704;28;19977;-70
2022/03/10 09:46:00;;;;;;;;;;;;;;;;;;4965648;28;19925;-71
2022/03/10 09:48:27;;;;;;;;;;;;;;;;;;4961313;28;19926;-71
2022/03/10 09:50:53;;;;;;;;;;;;;;;;;;4960240;28;19976;-71
2022/03/10 09:53:24;;;;;;;;;;;;;;;;;;4964679;28;20347;-71
2022/03/10 09:55:57;;;;;;;;;;;;;;;;;;4941440;28;19926;-71
2022/03/10 09:58:23;;;;;;;;;;;;;;;;;;4946116;28;19965;-71
2022/03/10 10:00:50;;;;;;;;;;;;;;;;;;4944713;28;19973;-71
2022/03/10 10:03:18;;;;;;;;;;;;;;;;;;4942394;28;19922;-71
2022/03/10 10:05:45;;;;;;;;;;;;;;;;;;4940134;28;19922;-71
2022/03/10 10:08:13;;;;;;;;;;;;;;;;;;4942977;28;19973;-71
2022/03/10 10:10:46;;;;;;;;;;;;;;;;;;4946288;28;19974;-71
2022/03/10 10:13:15;;;;;;;;;;;;;;;;;;4942579;28;19926;-71
2022/03/10 10:15:43;;;;;;;;;;;;;;;;;;4940338;28;19974;-70
2022/03/10 10:18:14;;;;;;;;;;;;;;;;;;4941297;28;19923;-71
2022/03/10 10:21:00;;;;;;;;;;;;;;;;;;4941756;28;19933;-71
2022/03/10 10:23:27;;;;;;;;;;;;;;;;;;4939997;28;20009;-71
2022/03/10 10:25:53;;;;;;;;;;;;;;;;;;4940558;28;19927;-71
2022/03/10 10:28:28;;;;;;;;;;;;;;;;;;4959366;28;19922;-71
2022/03/10 10:31:01;;;;;;;;;;;;;;;;;;4959529;28;20363;-71
2022/03/10 10:33:28;;;;;;;;;;;;;;;;;;4957680;28;20012;-71
2022/03/10 10:35:54;;;;;;;;;;;;;;;;;;4960598;28;20358;-71
2022/03/10 10:38:28;;;;;;;;;;;;;;;;;;4961489;28;20301;-71
2022/03/10 10:40:55;;;;;;;;;;;;;;;;;;4968861;28;19922;-71
2022/03/10 10:43:21;;;;;;;;;;;;;;;;;;4960127;28;20042;-71
2022/03/10 10:45:50;;;;;;;;;;;;;;;;;;4961292;28;20059;-71
2022/03/10 10:48:17;;;;;;;;;;;;;;;;;;4955822;28;20007;-71
2022/03/10 10:50:47;;;;;;;;;;;;;;;;;;4966750;28;19972;-71
2022/03/10 10:53:14;;;;;;;;;;;;;;;;;;4960990;28;19972;-70
2022/03/10 10:55:45;;;;;;;;;;;;;;;;;;4968659;28;20366;-70
2022/03/10 10:58:11;;;;;;;;;;;;;;;;;;4965213;28;19953;-71
2022/03/10 11:00:45;;;;;;;;;;;;;;;;;;4958649;28;19922;-71
2022/03/10 11:03:11;;;;;;;;;;;;;;;;;;4960735;28;19929;-71
2022/03/10 11:05:38;;;;;;;;;;;;;;;;;;4959144;28;19933;-71
2022/03/10 11:08:11;;;;;;;;;;;;;;;;;;4944021;28;20018;-71
2022/03/10 11:10:37;;;;;;;;;;;;;;;;;;4941348;28;20617;-71
2022/03/10 11:13:04;;;;;;;;;;;;;;;;;;4938742;28;19958;-71
2022/03/10 11:15:30;;;;;;;;;;;;;;;;;;4940420;28;20017;-71
2022/03/10 11:17:57;;;;;;;;;;;;;;;;;;4943613;28;20494;-71
2022/03/10 11:20:23;;;;;;;;;;;;;;;;;;4944192;28;19954;-70
2022/03/10 11:22:50;;;;;;;;;;;;;;;;;;4943203;28;19970;-71
2022/03/10 11:25:16;;;;;;;;;;;;;;;;;;4940418;28;20546;-71
2022/03/10 11:27:43;;;;;;;;;;;;;;;;;;4939305;28;19958;-71
2022/03/10 11:30:11;;;;;;;;;;;;;;;;;;4941617;28;20005;-71
2022/03/10 11:32:37;;;;;;;;;;;;;;;;;;4938854;28;19970;-71
2022/03/10 11:35:05;;;;;;;;;;;;;;;;;;4941663;28;19929;-71
2022/03/10 11:37:31;;;;;;;;;;;;;;;;;;4942189;28;19977;-71
2022/03/10 11:39:57;;;;;;;;;;;;;;;;;;4941018;28;20146;-71
2022/03/10 11:42:24;;;;;;;;;;;;;;;;;;4941406;28;20013;-71
2022/03/10 11:44:57;;;;;;;;;;;;;;;;;;4941616;28;20461;-71
2022/03/10 11:47:23;;;;;;;;;;;;;;;;;;4950362;28;20193;-71
2022/03/10 11:49:50;;;;;;;;;;;;;;;;;;4960534;28;19969;-71
2022/03/10 11:52:16;;;;;;;;;;;;;;;;;;4962989;28;19967;-71
2022/03/10 11:54:43;;;;;;;;;;;;;;;;;;4961348;28;20203;-71
2022/03/10 11:57:12;;;;;;;;;;;;;;;;;;4959748;28;19921;-71
2022/03/10 11:59:46;;;;;;;;;;;;;;;;;;4963150;28;20013;-71
2022/03/10 12:02:13;;;;;;;;;;;;;;;;;;4963659;28;19928;-71
2022/03/10 12:04:40;;;;;;;;;;;;;;;;;;4963352;28;19926;-71
2022/03/10 12:07:09;;;;;;;;;;;;;;;;;;4961789;28;19965;-71
2022/03/10 12:09:36;;;;;;;;;;;;;;;;;;4964432;28;19961;-71
2022/03/10 12:12:02;;;;;;;;;;;;;;;;;;4964932;28;19973;-71
2022/03/10 12:14:51;;;;;;;;;;;;;;;;;;4965689;28;20378;-71
2022/03/10 12:17:17;;;;;;;;;;;;;;;;;;4963793;28;20512;-70
2022/03/10 12:19:50;;;;;;;;;;;;;;;;;;4968492;28;19929;-71
2022/03/10 12:22:18;;;;;;;;;;;;;;;;;;4966516;28;19928;-70
2022/03/10 12:24:46;;;;;;;;;;;;;;;;;;4964239;28;20025;-71
2022/03/10 12:27:13;;;;;;;;;;;;;;;;;;4961694;28;19965;-71
2022/03/10 12:29:39;;;;;;;;;;;;;;;;;;4965843;28;20024;-72
2022/03/10 12:32:06;;;;;;;;;;;;;;;;;;4963950;28;20402;-71
2022/03/10 12:34:34;;;;;;;;;;;;;;;;;;4964688;28;19968;-71
2022/03/10 12:37:01;;;;;;;;;;;;;;;;;;4963374;28;19969;-71
2022/03/10 12:39:28;;;;;;;;;;;;;;;;;;4968042;28;19969;-71
2022/03/10 12:42:04;;;;;;;;;;;;;;;;;;4964260;28;19981;-71
2022/03/10 12:44:31;;;;;;;;;;;;;;;;;;4961866;28;19934;-71
2022/03/10 12:46:57;;;;;;;;;;;;;;;;;;4964253;28;19984;-71
2022/03/10 12:49:26;;;;;;;;;;;;;;;;;;4964432;28;19926;-71
2022/03/10 12:51:52;;;;;;;;;;;;;;;;;;4969849;28;20369;-71
2022/03/10 12:54:18;;;;;;;;;;;;;;;;;;4967637;28;19961;-71
2022/03/10 12:56:54;;;;;;;;;;;;;;;;;;4946988;28;19977;-71
2022/03/10 12:59:21;;;;;;;;;;;;;;;;;;4964117;28;19982;-71
2022/03/10 13:01:47;;;;;;;;;;;;;;;;;;4962771;28;20334;-71
2022/03/10 13:04:14;;;;;;;;;;;;;;;;;;4965339;28;19949;-71
2022/03/10 13:06:40;;;;;;;;;;;;;;;;;;4962934;28;19930;-71
2022/03/10 13:09:07;;;;;;;;;;;;;;;;;;4960104;28;20394;-71
2022/03/10 13:11:34;;;;;;;;;;;;;;;;;;4960674;28;20312;-70
2022/03/10 13:14:00;;;;;;;;;;;;;;;;;;4963482;28;19977;-71
2022/03/10 13:16:26;;;;;;;;;;;;;;;;;;4964383;28;19926;-71
2022/03/10 13:18:59;;;;;;;;;;;;;;;;;;4965105;28;20083;-71
2022/03/10 13:21:26;;;;;;;;;;;;;;;;;;4964753;28;20025;-71
2022/03/10 13:23:52;;;;;;;;;;;;;;;;;;4961697;28;20009;-71
2022/03/10 13:26:25;;;;;;;;;;;;;;;;;;4959507;28;19925;-71
2022/03/10 13:28:51;;;;;;;;;;;;;;;;;;4965058;28;19965;-71
2022/03/10 13:31:17;;;;;;;;;;;;;;;;;;4959721;28;19965;-71
2022/03/10 13:33:50;;;;;;;;;;;;;;;;;;4944574;28;19969;-71
2022/03/10 13:36:17;;;;;;;;;;;;;;;;;;4942630;28;20379;-71
2022/03/10 13:38:43;;;;;;;;;;;;;;;;;;4941154;28;19962;-71
2022/03/10 13:41:14;;;;;;;;;;;;;;;;;;4943701;28;19922;-71
2022/03/10 13:43:42;;;;;;;;;;;;;;;;;;4943108;28;19926;-71
2022/03/10 13:46:09;;;;;;;;;;;;;;;;;;4943147;28;19957;-71
2022/03/10 13:48:35;;;;;;;;;;;;;;;;;;4941441;28;20005;-71
2022/03/10 13:51:02;;;;;;;;;;;;;;;;;;4941477;28;20013;-71
2022/03/10 13:53:28;;;;;;;;;;;;;;;;;;4961072;28;19927;-71
2022/03/10 13:56:01;;;;;;;;;;;;;;;;;;4961942;28;20005;-71
2022/03/10 13:58:30;;;;;;;;;;;;;;;;;;4964465;28;20304;-71
2022/03/10 14:00:56;;;;;;;;;;;;;;;;;;4963509;28;19972;-71
2022/03/10 14:03:32;;;;;;;;;;;;;;;;;;4964318;28;19929;-71
2022/03/10 14:05:58;;;;;;;;;;;;;;;;;;4962769;28;20013;-71
2022/03/10 14:08:25;;;;;;;;;;;;;;;;;;4965888;28;19922;-71
2022/03/10 14:10:52;;;;;;;;;;;;;;;;;;4962641;28;19981;-71
2022/03/10 14:13:19;;;;;;;;;;;;;;;;;;4963296;28;20418;-71
2022/03/10 14:15:46;;;;;;;;;;;;;;;;;;4963073;28;19985;-71
2022/03/10 14:18:13;;;;;;;;;;;;;;;;;;4963336;28;19965;-71
2022/03/10 14:20:39;;;;;;;;;;;;;;;;;;4959700;28;20446;-71
2022/03/10 14:23:05;;;;;;;;;;;;;;;;;;4963872;28;19926;-71
2022/03/10 14:25:32;;;;;;;;;;;;;;;;;;4964115;28;19980;-71
2022/03/10 14:27:59;;;;;;;;;;;;;;;;;;4963072;28;20013;-71
2022/03/10 14:30:25;;;;;;;;;;;;;;;;;;4958683;28;20374;-71
2022/03/10 14:32:54;;;;;;;;;;;;;;;;;;4944150;28;19926;-71
2022/03/10 14:35:21;;;;;;;;;;;;;;;;;;4945700;28;20042;-71
2022/03/10 14:37:47;;;;;;;;;;;;;;;;;;4944013;28;19962;-71
2022/03/10 14:40:14;;;;;;;;;;;;;;;;;;4939016;28;20009;-71
2022/03/10 14:42:40;;;;;;;;;;;;;;;;;;4941973;28;20021;-71
2022/03/10 14:45:06;;;;;;;;;;;;;;;;;;4941919;28;19976;-71
2022/03/10 14:47:34;;;;;;;;;;;;;;;;;;4941402;28;20394;-71
2022/03/10 14:50:00;;;;;;;;;;;;;;;;;;4941848;28;19970;-71
2022/03/10 14:52:26;;;;;;;;;;;;;;;;;;4942417;28;19973;-71
2022/03/10 14:54:59;;;;;;;;;;;;;;;;;;4943900;28;19926;-71
2022/03/10 14:57:26;;;;;;;;;;;;;;;;;;4942322;28;19984;-71
2022/03/10 14:59:52;;;;;;;;;;;;;;;;;;4943137;28;19973;-71
2022/03/10 15:02:25;;;;;;;;;;;;;;;;;;4946205;28;19926;-71
2022/03/10 15:04:52;;;;;;;;;;;;;;;;;;4963168;28;20005;-72
2022/03/10 15:07:18;;;;;;;;;;;;;;;;;;4962799;28;19933;-71
2022/03/10 15:09:45;;;;;;;;;;;;;;;;;;4963984;28;19950;-72
2022/03/10 15:12:11;;;;;;;;;;;;;;;;;;4960841;28;19996;-71
2022/03/10 15:14:38;;;;;;;;;;;;;;;;;;4958517;28;19961;-71
2022/03/10 15:17:06;;;;;;;;;;;;;;;;;;4942226;28;19926;-71
2022/03/10 15:19:35;;;;;;;;;;;;;;;;;;4944268;28;20383;-71
2022/03/10 15:22:01;;;;;;;;;;;;;;;;;;4941053;28;20726;-71
2022/03/10 15:24:29;;;;;;;;;;;;;;;;;;4941416;28;19970;-71
2022/03/10 15:26:55;;;;;;;;;;;;;;;;;;4941662;28;19977;-70
2022/03/10 15:29:21;;;;;;;;;;;;;;;;;;4939892;28;20383;-71
2022/03/10 15:31:54;;;;;;;;;;;;;;;;;;4940330;28;19994;-71
2022/03/10 15:34:20;;;;;;;;;;;;;;;;;;4942943;28;19966;-71
2022/03/10 15:36:47;;;;;;;;;;;;;;;;;;4935346;28;19965;-71
2022/03/10 15:39:13;;;;;;;;;;;;;;;;;;4937326;28;19966;-71
2022/03/10 15:41:41;;;;;;;;;;;;;;;;;;4940398;28;19973;-71
2022/03/10 15:44:08;;;;;;;;;;;;;;;;;;4960409;28;19930;-71
2022/03/10 15:46:34;;;;;;;;;;;;;;;;;;4960517;28;19961;-71
2022/03/10 15:49:01;;;;;;;;;;;;;;;;;;4963408;28;19955;-71
2022/03/10 15:51:27;;;;;;;;;;;;;;;;;;4958284;28;19976;-72
2022/03/10 15:53:54;;;;;;;;;;;;;;;;;;4962026;28;19933;-71
2022/03/10 15:56:20;;;;;;;;;;;;;;;;;;4958279;28;19985;-71
2022/03/10 15:58:47;;;;;;;;;;;;;;;;;;4957993;28;19927;-71
2022/03/10 16:01:16;;;;;;;;;;;;;;;;;;4960335;28;20001;-71
2022/03/10 16:03:43;;;;;;;;;;;;;;;;;;4961966;28;19965;-71
2022/03/10 16:06:09;;;;;;;;;;;;;;;;;;4966083;28;19926;-71
2022/03/10 16:08:36;;;;;;;;;;;;;;;;;;4964352;28;20419;-71
2022/03/10 16:11:02;;;;;;;;;;;;;;;;;;4960598;28;20342;-71
2022/03/10 16:13:29;;;;;;;;;;;;;;;;;;4960686;28;19926;-71
2022/03/10 16:15:57;;;;;;;;;;;;;;;;;;4961062;28;19933;-71
2022/03/10 16:18:24;;;;;;;;;;;;;;;;;;4959804;28;19922;-72
2022/03/10 16:20:51;;;;;;;;;;;;;;;;;;4961107;28;19926;-71
2022/03/10 16:23:23;;;;;;;;;;;;;;;;;;4960513;28;20397;-72
2022/03/10 16:25:49;;;;;;;;;;;;;;;;;;4957288;28;19926;-71
2022/03/10 16:28:16;;;;;;;;;;;;;;;;;;4958488;28;19973;-71
2022/03/10 16:30:43;;;;;;;;;;;;;;;;;;4960473;28;19929;-72
2022/03/10 16:33:09;;;;;;;;;;;;;;;;;;4955950;28;19972;-71
2022/03/10 16:35:35;;;;;;;;;;;;;;;;;;4958916;28;19980;-71
2022/03/10 16:38:05;;;;;;;;;;;;;;;;;;4958125;28;20369;-71
2022/03/10 16:40:31;;;;;;;;;;;;;;;;;;4963597;28;19961;-71
2022/03/10 16:42:58;;;;;;;;;;;;;;;;;;4960440;28;20366;-71
2022/03/10 16:45:30;;;;;;;;;;;;;;;;;;4961614;28;19973;-71
2022/03/10 16:47:56;;;;;;;;;;;;;;;;;;4964123;28;20009;-71
2022/03/10 16:50:24;;;;;;;;;;;;;;;;;;4961121;28;19985;-70
2022/03/10 16:52:55;;;;;;;;;;;;;;;;;;4965791;28;19926;-71